Time;durP1;ratioP1;P1;durP2;ratioP2;P2;SDS_P1;SDS_P2;PMS_P1;PMS_P2;Temp;Humidity;BMP_temperature;BMP_pressure;BME280_temperature;BME280_humidity;BME280_pressure;Samples;Min_cycle;Max_cycle;Signal;HPM_P1;HPM_P2
2023/10/31 00:02:39;;;;;;;;;;;;;;;;;;;;;
2023/10/31 00:05:31;;;;;;;3.07;2.60;;;;;;;;;;5002656;28;20011;-76
2023/10/31 00:08:15;;;;;;;4.87;3.40;;;;;;;;;;4993507;28;20034;-76
2023/10/31 00:11:04;;;;;;;;;;;;;;;;;;;;;
2023/10/31 00:13:42;;;;;;;4.03;3.63;;;;;;;;;;5001023;28;20011;-78
2023/10/31 00:16:31;;;;;;;5.00;4.33;;;;;;;;;;4996017;28;20042;-76
2023/10/31 00:19:06;;;;;;;5.97;5.27;;;;;;;;;;4967635;28;20043;-76
2023/10/31 00:22:05;;;;;;;;;;;;;;;;;;;;;
2023/10/31 00:24:39;;;;;;;6.60;5.43;;;;;;;;;;4997612;28;20038;-76
2023/10/31 00:30:01;;;;;;;6.20;5.60;;;;;;;;;;4986704;28;20027;-75
2023/10/31 00:32:30;;;;;;;7.13;5.80;;;;;;;;;;4981580;28;20090;-76
2023/10/31 00:35:03;;;;;;;5.63;5.03;;;;;;;;;;4974294;28;20030;-76
2023/10/31 00:37:44;;;;;;;5.40;4.57;;;;;;;;;;4974926;28;20018;-76
2023/10/31 00:40:16;;;;;;;6.40;3.53;;;;;;;;;;4991755;28;20046;-76
2023/10/31 00:42:49;;;;;;;3.47;3.15;;;;;;;;;;4979909;28;20027;-77
2023/10/31 00:45:15;;;;;;;4.67;2.97;;;;;;;;;;4997189;28;20145;-76
2023/10/31 00:47:43;;;;;;;3.13;2.67;;;;;;;;;;4995290;28;20103;-76
2023/10/31 00:50:10;;;;;;;4.60;3.07;;;;;;;;;;4978653;28;20038;-76
2023/10/31 00:52:36;;;;;;;4.17;2.93;;;;;;;;;;4979309;28;20033;-76
2023/10/31 00:55:16;;;;;;;6.93;3.00;;;;;;;;;;4974293;28;20034;-76
2023/10/31 00:57:46;;;;;;;5.57;3.27;;;;;;;;;;4995365;28;20034;-76
2023/10/31 01:00:18;;;;;;;4.60;3.10;;;;;;;;;;4975382;28;20153;-76
2023/10/31 01:02:51;;;;;;;3.20;2.63;;;;;;;;;;4994225;28;20022;-76
2023/10/31 01:05:29;;;;;;;5.43;2.47;;;;;;;;;;4974835;28;20054;-76
2023/10/31 01:07:58;;;;;;;9.30;2.67;;;;;;;;;;4978293;28;20045;-76
2023/10/31 01:10:26;;;;;;;6.53;3.30;;;;;;;;;;4978112;28;20039;-76
2023/10/31 01:12:54;;;;;;;6.63;3.00;;;;;;;;;;4974047;28;20019;-76
2023/10/31 01:15:20;;;;;;;4.73;2.40;;;;;;;;;;4974018;28;20030;-76
2023/10/31 01:18:04;;;;;;;5.07;2.30;;;;;;;;;;4994717;28;20015;-76
2023/10/31 01:20:33;;;;;;;4.50;2.33;;;;;;;;;;4994681;28;20056;-77
2023/10/31 01:23:01;;;;;;;3.87;2.20;;;;;;;;;;4992436;28;20050;-76
2023/10/31 01:25:29;;;;;;;4.37;2.17;;;;;;;;;;4972728;28;20588;-76
2023/10/31 01:27:55;;;;;;;5.30;2.07;;;;;;;;;;4977666;28;20039;-75
2023/10/31 01:30:24;;;;;;;3.90;2.00;;;;;;;;;;4977004;28;20031;-76
2023/10/31 01:32:58;;;;;;;6.43;1.87;;;;;;;;;;4995212;28;20007;-76
2023/10/31 01:35:24;;;;;;;5.13;1.80;;;;;;;;;;4978405;28;20050;-76
2023/10/31 01:37:50;;;;;;;7.70;1.97;;;;;;;;;;4973620;28;20041;-76
2023/10/31 01:40:25;;;;;;;2.27;1.47;;;;;;;;;;4995512;28;20030;-78
2023/10/31 01:43:17;;;;;;;;;;;;;;;;;;;;;
2023/10/31 01:45:43;;;;;;;4.03;1.53;;;;;;;;;;4994985;28;20058;-76
2023/10/31 01:48:19;;;;;;;7.63;2.00;;;;;;;;;;4977826;28;20078;-76
2023/10/31 01:50:55;;;;;;;;;;;;;;;;;;;;;
2023/10/31 01:54:00;;;;;;;5.83;1.67;;;;;;;;;;4989338;28;20094;-76
2023/10/31 01:56:29;;;;;;;5.70;1.90;;;;;;;;;;4968249;28;20029;-76
2023/10/31 01:58:55;;;;;;;6.00;1.80;;;;;;;;;;4992935;28;20115;-76
2023/10/31 02:01:29;;;;;;;7.50;1.40;;;;;;;;;;4994615;28;20112;-75
2023/10/31 02:04:06;;;;;;;5.47;1.70;;;;;;;;;;4990659;28;20027;-76
2023/10/31 02:06:34;;;;;;;3.43;1.00;;;;;;;;;;4977732;28;20094;-76
2023/10/31 02:09:00;;;;;;;14.83;1.47;;;;;;;;;;4977500;28;20054;-76
2023/10/31 02:11:37;;;;;;;4.03;1.27;;;;;;;;;;4991112;28;20030;-76
2023/10/31 02:14:05;;;;;;;4.57;1.37;;;;;;;;;;4976904;28;20015;-75
2023/10/31 02:16:36;;;;;;;7.33;1.50;;;;;;;;;;4993912;28;20027;-75
2023/10/31 02:19:03;;;;;;;5.87;1.43;;;;;;;;;;4975189;28;20027;-75
2023/10/31 02:21:29;;;;;;;4.07;1.30;;;;;;;;;;4974453;28;20041;-76
2023/10/31 02:24:02;;;;;;;5.63;1.40;;;;;;;;;;4972734;28;20033;-76
2023/10/31 02:26:36;;;;;;;7.60;1.88;;;;;;;;;;4976273;28;20022;-76
2023/10/31 02:29:03;;;;;;;3.33;1.90;;;;;;;;;;4993816;28;20256;-76
2023/10/31 02:31:37;;;;;;;3.83;1.20;;;;;;;;;;4977244;28;20011;-75
2023/10/31 02:34:05;;;;;;;1.87;0.87;;;;;;;;;;4977676;28;20023;-76
2023/10/31 02:36:33;;;;;;;4.07;1.37;;;;;;;;;;4973335;28;20023;-76
2023/10/31 02:38:59;;;;;;;3.97;1.17;;;;;;;;;;4993538;28;20027;-76
2023/10/31 02:41:25;;;;;;;3.73;1.57;;;;;;;;;;4976366;28;20043;-75
2023/10/31 02:43:51;;;;;;;3.50;1.70;;;;;;;;;;4978087;28;20026;-76
2023/10/31 02:46:19;;;;;;;4.70;1.67;;;;;;;;;;4973372;28;20026;-76
2023/10/31 02:48:50;;;;;;;6.93;1.77;;;;;;;;;;4996444;28;20070;-76
2023/10/31 02:51:16;;;;;;;5.10;2.00;;;;;;;;;;4996812;28;20103;-76
2023/10/31 02:54:03;;;;;;;6.33;1.83;;;;;;;;;;4977674;28;20021;-75
2023/10/31 02:56:29;;;;;;;6.13;2.17;;;;;;;;;;4975585;28;20034;-75
2023/10/31 02:59:11;;;;;;;4.47;1.63;;;;;;;;;;4978480;28;20027;-75
2023/10/31 03:01:39;;;;;;;4.87;1.93;;;;;;;;;;4997035;28;20035;-76
2023/10/31 03:04:08;;;;;;;2.50;1.20;;;;;;;;;;4971429;28;20019;-76
2023/10/31 03:06:34;;;;;;;6.10;1.90;;;;;;;;;;4980848;28;20031;-76
2023/10/31 03:09:00;;;;;;;5.77;1.40;;;;;;;;;;4974315;28;20031;-76
2023/10/31 03:11:29;;;;;;;4.33;1.30;;;;;;;;;;4982179;28;20018;-76
2023/10/31 03:13:56;;;;;;;3.97;1.50;;;;;;;;;;4999578;28;20029;-76
2023/10/31 03:16:22;;;;;;;3.97;1.43;;;;;;;;;;4997906;28;20011;-76
2023/10/31 03:18:50;;;;;;;1.97;1.30;;;;;;;;;;4975255;28;20030;-75
2023/10/31 03:21:27;;;;;;;5.57;2.07;;;;;;;;;;4998547;28;20034;-76
2023/10/31 03:23:55;;;;;;;4.07;1.20;;;;;;;;;;4999269;28;20030;-76
2023/10/31 03:26:21;;;;;;;1.63;0.93;;;;;;;;;;5000354;28;20015;-76
2023/10/31 03:28:57;;;;;;;2.17;0.90;;;;;;;;;;4997153;28;20112;-75
2023/10/31 03:31:27;;;;;;;6.47;1.23;;;;;;;;;;4997027;28;20015;-76
2023/10/31 03:33:54;;;;;;;5.47;1.10;;;;;;;;;;4998130;28;20043;-75
2023/10/31 03:36:20;;;;;;;3.60;1.10;;;;;;;;;;4974782;28;20019;-76
2023/10/31 03:38:46;;;;;;;2.97;1.23;;;;;;;;;;4975852;28;20029;-76
2023/10/31 03:41:13;;;;;;;4.20;1.27;;;;;;;;;;4973605;28;20059;-76
2023/10/31 03:43:48;;;;;;;3.53;1.20;;;;;;;;;;4999687;28;20225;-75
2023/10/31 03:46:16;;;;;;;2.80;0.97;;;;;;;;;;4975398;28;20022;-75
2023/10/31 03:48:45;;;;;;;3.97;0.93;;;;;;;;;;5002047;28;20046;-76
2023/10/31 03:51:31;;;;;;;2.90;0.87;;;;;;;;;;4981217;28;20034;-76
2023/10/31 03:53:59;;;;;;;2.63;0.70;;;;;;;;;;5000585;28;20034;-76
2023/10/31 03:56:28;;;;;;;2.07;0.80;;;;;;;;;;4996753;28;20027;-76
2023/10/31 03:58:59;;;;;;;3.23;1.10;;;;;;;;;;4982970;28;20041;-76
2023/10/31 04:01:32;;;;;;;2.93;0.83;;;;;;;;;;4982608;28;20034;-76
2023/10/31 04:04:03;;;;;;;4.20;1.40;;;;;;;;;;4983135;28;20046;-76
2023/10/31 04:06:31;;;;;;;3.90;0.90;;;;;;;;;;4981940;28;20046;-76
2023/10/31 04:09:05;;;;;;;1.73;1.00;;;;;;;;;;4983574;28;20038;-76
2023/10/31 04:11:33;;;;;;;3.13;1.20;;;;;;;;;;4980089;28;20042;-76
2023/10/31 04:14:03;;;;;;;4.20;0.80;;;;;;;;;;4998192;28;20074;-77
2023/10/31 04:16:34;;;;;;;1.27;0.80;;;;;;;;;;4979203;28;20022;-76
2023/10/31 04:21:55;;;;;;;6.87;1.07;;;;;;;;;;4998776;28;20047;-76
2023/10/31 04:24:21;;;;;;;2.13;0.80;;;;;;;;;;4982050;28;20010;-76
2023/10/31 04:27:07;;;;;;;2.33;1.33;;;;;;;;;;4981027;28;20057;-77
2023/10/31 04:29:58;;;;;;;2.03;0.60;;;;;;;;;;4981217;28;20027;-76
2023/10/31 04:32:24;;;;;;;2.53;0.90;;;;;;;;;;4997183;28;20023;-76
2023/10/31 04:34:57;;;;;;;1.57;0.70;;;;;;;;;;4979900;28;20027;-76
2023/10/31 04:37:24;;;;;;;2.10;0.97;;;;;;;;;;4998581;28;20019;-76
2023/10/31 04:39:57;;;;;;;3.87;0.70;;;;;;;;;;4973246;28;20222;-76
2023/10/31 04:42:28;;;;;;;2.40;0.80;;;;;;;;;;4982483;28;20011;-75
2023/10/31 04:44:57;;;;;;;2.47;1.10;;;;;;;;;;5001423;28;20026;-76
2023/10/31 04:47:25;;;;;;;2.70;1.00;;;;;;;;;;4991711;28;20075;-76
2023/10/31 04:49:51;;;;;;;3.80;0.93;;;;;;;;;;4987484;28;20023;-76
2023/10/31 04:52:22;;;;;;;2.90;0.80;;;;;;;;;;4983556;28;20023;-76
2023/10/31 04:54:53;;;;;;;2.93;1.30;;;;;;;;;;4983818;28;20229;-76
2023/10/31 04:57:19;;;;;;;2.17;0.80;;;;;;;;;;4984430;28;20019;-75
2023/10/31 04:59:48;;;;;;;1.60;0.93;;;;;;;;;;5000582;28;20080;-76
2023/10/31 05:02:19;;;;;;;6.63;1.87;;;;;;;;;;4992889;28;20247;-76
2023/10/31 05:04:55;;;;;;;5.10;1.27;;;;;;;;;;4983851;28;20019;-76
2023/10/31 05:07:26;;;;;;;1.37;0.87;;;;;;;;;;4982270;28;20019;-75
2023/10/31 05:10:02;;;;;;;2.87;1.43;;;;;;;;;;4983333;28;20039;-76
2023/10/31 05:12:28;;;;;;;1.57;1.00;;;;;;;;;;4990783;28;20038;-78
2023/10/31 05:15:02;;;;;;;2.03;1.17;;;;;;;;;;4992965;28;20026;-76
2023/10/31 05:17:33;;;;;;;4.57;1.20;;;;;;;;;;5002139;28;20011;-77
2023/10/31 05:20:02;;;;;;;3.10;1.23;;;;;;;;;;4980936;28;20063;-76
2023/10/31 05:22:31;;;;;;;1.53;1.10;;;;;;;;;;4995378;28;20015;-76
2023/10/31 05:25:00;;;;;;;3.67;1.37;;;;;;;;;;4989604;28;20083;-76
2023/10/31 05:27:48;;;;;;;3.93;1.00;;;;;;;;;;4983092;28;20014;-75
2023/10/31 05:30:17;;;;;;;5.57;1.40;;;;;;;;;;4967814;28;20031;-76
2023/10/31 05:32:47;;;;;;;2.83;1.30;;;;;;;;;;4980422;28;20033;-76
2023/10/31 05:35:15;;;;;;;1.43;1.17;;;;;;;;;;4982909;28;20046;-76
2023/10/31 05:37:43;;;;;;;2.17;1.20;;;;;;;;;;4986885;28;20031;-76
2023/10/31 05:40:10;;;;;;;2.00;1.20;;;;;;;;;;4980781;28;20018;-76
2023/10/31 05:42:36;;;;;;;2.57;1.10;;;;;;;;;;4983138;28;20019;-76
2023/10/31 05:45:04;;;;;;;2.63;1.17;;;;;;;;;;4982816;28;20022;-77
2023/10/31 05:47:33;;;;;;;3.87;1.33;;;;;;;;;;4982648;28;20043;-78
2023/10/31 05:50:05;;;;;;;2.17;0.90;;;;;;;;;;4981922;28;20030;-76
2023/10/31 05:52:40;;;;;;;2.83;1.42;;;;;;;;;;4998403;28;20061;-78
2023/10/31 05:55:06;;;;;;;1.77;1.10;;;;;;;;;;4982829;28;20103;-77
2023/10/31 05:57:33;;;;;;;1.27;1.10;;;;;;;;;;4994894;28;20011;-79
2023/10/31 05:59:59;;;;;;;4.37;1.20;;;;;;;;;;4996340;28;20030;-79
2023/10/31 06:02:48;;;;;;;1.93;1.30;;;;;;;;;;4982785;28;20035;-77
2023/10/31 06:05:15;;;;;;;3.43;1.70;;;;;;;;;;4982914;28;20066;-77
2023/10/31 06:07:43;;;;;;;4.73;1.30;;;;;;;;;;4988128;28;20019;-76
2023/10/31 06:10:09;;;;;;;3.50;1.83;;;;;;;;;;4986249;28;20031;-76
2023/10/31 06:12:35;;;;;;;8.13;2.00;;;;;;;;;;4982059;28;20015;-77
2023/10/31 06:15:05;;;;;;;3.53;1.80;;;;;;;;;;4982550;28;20082;-76
2023/10/31 06:17:33;;;;;;;2.07;1.70;;;;;;;;;;4999693;28;20007;-76
2023/10/31 06:20:01;;;;;;;3.67;2.13;;;;;;;;;;4974882;28;20035;-76
2023/10/31 06:22:32;;;;;;;2.80;1.90;;;;;;;;;;4994926;28;20042;-76
2023/10/31 06:25:03;;;;;;;2.53;1.80;;;;;;;;;;4972863;28;20014;-76
2023/10/31 06:27:34;;;;;;;3.60;2.00;;;;;;;;;;4974327;28;20027;-77
2023/10/31 06:30:02;;;;;;;2.77;1.80;;;;;;;;;;4996961;28;20027;-77
2023/10/31 06:32:29;;;;;;;2.67;2.17;;;;;;;;;;4979877;28;20027;-75
2023/10/31 06:34:55;;;;;;;4.60;2.27;;;;;;;;;;4979537;28;20042;-76
2023/10/31 06:37:36;;;;;;;4.80;2.27;;;;;;;;;;4973695;28;20015;-76
2023/10/31 06:40:05;;;;;;;4.47;2.30;;;;;;;;;;4973163;28;20030;-76
2023/10/31 06:42:36;;;;;;;7.13;2.43;;;;;;;;;;4979871;28;20038;-75
2023/10/31 06:45:04;;;;;;;2.80;1.70;;;;;;;;;;4994032;28;20079;-76
2023/10/31 06:47:41;;;;;;;4.87;2.07;;;;;;;;;;4977275;28;20018;-76
2023/10/31 06:50:08;;;;;;;3.17;2.27;;;;;;;;;;4992295;28;20089;-75
2023/10/31 06:52:36;;;;;;;5.77;2.30;;;;;;;;;;4994000;28;20023;-75
2023/10/31 06:55:02;;;;;;;3.67;2.10;;;;;;;;;;4972731;28;20034;-76
2023/10/31 06:57:31;;;;;;;2.97;1.87;;;;;;;;;;4993332;28;20029;-76
2023/10/31 06:59:57;;;;;;;3.17;2.20;;;;;;;;;;4970842;28;20039;-76
2023/10/31 07:02:23;;;;;;;3.37;2.17;;;;;;;;;;4976888;28;20042;-76
2023/10/31 07:04:58;;;;;;;4.07;2.40;;;;;;;;;;4976663;28;20034;-76
2023/10/31 07:07:24;;;;;;;7.63;2.60;;;;;;;;;;4974170;28;20034;-77
2023/10/31 07:10:05;;;;;;;3.90;2.53;;;;;;;;;;4994356;28;20066;-76
2023/10/31 07:12:34;;;;;;;5.93;2.50;;;;;;;;;;4993206;28;20019;-76
2023/10/31 07:15:00;;;;;;;8.87;3.53;;;;;;;;;;4977781;28;20023;-76
2023/10/31 07:17:27;;;;;;;5.43;2.87;;;;;;;;;;4977461;28;21233;-76
2023/10/31 07:19:55;;;;;;;5.10;3.27;;;;;;;;;;4972811;28;20019;-76
2023/10/31 07:22:23;;;;;;;3.80;2.50;;;;;;;;;;4977319;28;20015;-76
2023/10/31 07:24:51;;;;;;;4.17;2.50;;;;;;;;;;4972162;28;20019;-77
2023/10/31 07:27:18;;;;;;;4.90;3.00;;;;;;;;;;4976630;28;20047;-76
2023/10/31 07:29:51;;;;;;;5.53;3.13;;;;;;;;;;4976663;28;20039;-76
2023/10/31 07:32:24;;;;;;;4.50;3.47;;;;;;;;;;4976425;28;20355;-76
2023/10/31 07:34:50;;;;;;;3.27;2.93;;;;;;;;;;4972455;28;20047;-76
2023/10/31 07:37:22;;;;;;;5.33;3.50;;;;;;;;;;4977332;28;20014;-75
2023/10/31 07:39:48;;;;;;;6.20;3.17;;;;;;;;;;4972058;28;20015;-75
2023/10/31 07:42:17;;;;;;;8.70;3.93;;;;;;;;;;4993853;28;20037;-76
2023/10/31 07:44:43;;;;;;;3.87;3.47;;;;;;;;;;4977042;28;20057;-75
2023/10/31 07:47:11;;;;;;;7.00;4.07;;;;;;;;;;4993686;28;20043;-75
2023/10/31 07:49:43;;;;;;;6.47;3.93;;;;;;;;;;4994039;28;20035;-75
2023/10/31 07:52:09;;;;;;;9.33;3.67;;;;;;;;;;5008338;23;20034;-76
2023/10/31 07:54:35;;;;;;;5.73;3.07;;;;;;;;;;4993952;28;20023;-76
2023/10/31 07:57:34;;;;;;;;;;;;;;;;;;;;;
2023/10/31 08:00:07;;;;;;;3.70;2.57;;;;;;;;;;4967666;28;20054;-76
2023/10/31 08:02:35;;;;;;;6.60;2.80;;;;;;;;;;5011770;28;20027;-77
2023/10/31 08:05:01;;;;;;;6.40;2.53;;;;;;;;;;4994605;28;20038;-76
2023/10/31 08:07:30;;;;;;;3.93;2.50;;;;;;;;;;5010774;28;20027;-76
2023/10/31 08:10:01;;;;;;;5.27;2.30;;;;;;;;;;4994586;28;20039;-75
2023/10/31 08:12:29;;;;;;;4.43;2.13;;;;;;;;;;4996454;28;20079;-76
2023/10/31 08:14:56;;;;;;;4.80;2.23;;;;;;;;;;4996524;28;20034;-75
2023/10/31 08:17:24;;;;;;;10.87;2.80;;;;;;;;;;5014409;28;20027;-75
2023/10/31 08:19:52;;;;;;;5.07;2.10;;;;;;;;;;5000199;28;20023;-76
2023/10/31 08:22:18;;;;;;;3.97;1.87;;;;;;;;;;4999763;28;20039;-76
2023/10/31 08:24:49;;;;;;;2.67;2.00;;;;;;;;;;4994166;28;20051;-75
2023/10/31 08:27:16;;;;;;;3.67;2.00;;;;;;;;;;5013952;28;20077;-76
2023/10/31 08:29:42;;;;;;;5.47;2.10;;;;;;;;;;5010888;28;20030;-76
2023/10/31 08:32:10;;;;;;;2.97;1.93;;;;;;;;;;5013980;28;20031;-76
2023/10/31 08:34:37;;;;;;;2.90;2.30;;;;;;;;;;5014875;28;20053;-77
2023/10/31 08:37:05;;;;;;;4.07;2.33;;;;;;;;;;5012357;28;20046;-77
2023/10/31 08:39:33;;;;;;;5.07;2.53;;;;;;;;;;4993528;28;20034;-76
2023/10/31 08:42:02;;;;;;;3.33;2.33;;;;;;;;;;5011139;28;20026;-76
2023/10/31 08:44:33;;;;;;;6.47;2.43;;;;;;;;;;5018032;28;20060;-77
2023/10/31 08:46:59;;;;;;;3.87;2.30;;;;;;;;;;5002008;28;20023;-76
2023/10/31 08:49:31;;;;;;;5.57;1.77;;;;;;;;;;4999295;28;20038;-76
2023/10/31 08:52:02;;;;;;;3.25;2.50;;;;;;;;;;4996184;28;20031;-75
2023/10/31 08:54:28;;;;;;;3.50;1.83;;;;;;;;;;5001810;28;20049;-76
2023/10/31 08:56:54;;;;;;;4.73;2.43;;;;;;;;;;4999230;28;20033;-76
2023/10/31 08:59:22;;;;;;;4.53;2.20;;;;;;;;;;5001751;28;20019;-76
2023/10/31 09:01:51;;;;;;;3.97;2.70;;;;;;;;;;5000440;28;20062;-75
2023/10/31 09:04:19;;;;;;;4.43;2.30;;;;;;;;;;5000775;28;20038;-75
2023/10/31 09:06:45;;;;;;;3.33;2.43;;;;;;;;;;5000743;28;20030;-76
2023/10/31 09:09:18;;;;;;;2.73;2.20;;;;;;;;;;5017847;28;20063;-79
2023/10/31 09:11:44;;;;;;;3.57;1.87;;;;;;;;;;5016391;28;20037;-76
2023/10/31 09:14:13;;;;;;;3.60;2.07;;;;;;;;;;5015207;28;20046;-76
2023/10/31 09:16:39;;;;;;;4.50;2.30;;;;;;;;;;5001801;28;20042;-77
2023/10/31 09:19:08;;;;;;;3.97;1.80;;;;;;;;;;5000782;28;20010;-77
2023/10/31 09:21:37;;;;;;;3.90;2.13;;;;;;;;;;5015355;28;20022;-77
2023/10/31 09:24:10;;;;;;;3.47;2.03;;;;;;;;;;5001427;28;20026;-77
2023/10/31 09:26:39;;;;;;;4.87;2.20;;;;;;;;;;5061192;22;20042;-77
2023/10/31 09:29:07;;;;;;;5.60;2.17;;;;;;;;;;5006469;28;20048;-76
2023/10/31 09:31:36;;;;;;;3.77;2.00;;;;;;;;;;5021635;28;20031;-76
2023/10/31 09:43:11;;;;;;;4.97;1.63;;;;;;;;;;5717793;22;20037;-76
2023/10/31 09:45:45;;;;;;;3.73;1.70;;;;;;;;;;5052841;28;20056;-77
2023/10/31 09:51:16;;;;;;;4.23;1.20;;;;;;;;;;5043080;28;20010;-76
2023/10/31 09:53:45;;;;;;;3.97;1.47;;;;;;;;;;5057893;28;20029;-76
2023/10/31 09:56:17;;;;;;;2.60;1.13;;;;;;;;;;5038725;28;20020;-76
2023/10/31 09:59:05;;;;;;;3.85;1.30;;;;;;;;;;5038965;28;20058;-76
2023/10/31 10:01:34;;;;;;;1.57;1.07;;;;;;;;;;5055492;28;20679;-75
2023/10/31 10:04:00;;;;;;;4.33;1.53;;;;;;;;;;5053643;28;20017;-76
2023/10/31 10:06:29;;;;;;;3.57;1.20;;;;;;;;;;5034136;28;20029;-77
2023/10/31 10:08:56;;;;;;;3.20;1.47;;;;;;;;;;5038565;28;20037;-76
2023/10/31 10:11:22;;;;;;;2.10;1.20;;;;;;;;;;5033516;28;20041;-76
2023/10/31 10:13:48;;;;;;;8.17;1.73;;;;;;;;;;5055009;28;20075;-77
2023/10/31 10:16:31;;;;;;;1.53;1.00;;;;;;;;;;5055996;28;20028;-75
2023/10/31 10:18:59;;;;;;;2.67;1.15;;;;;;;;;;5037070;28;20044;-75
2023/10/31 10:21:27;;;;;;;2.60;1.17;;;;;;;;;;5038568;28;20017;-75
2023/10/31 10:24:03;;;;;;;3.03;0.93;;;;;;;;;;5037412;28;20057;-77
2023/10/31 10:26:31;;;;;;;4.87;0.90;;;;;;;;;;5055472;28;21198;-77
2023/10/31 10:29:03;;;;;;;4.43;0.93;;;;;;;;;;5037119;28;20498;-78
2023/10/31 10:31:31;;;;;;;2.15;0.80;;;;;;;;;;5037743;28;20072;-78
2023/10/31 10:34:01;;;;;;;6.63;0.80;;;;;;;;;;5055349;28;20017;-77
2023/10/31 10:36:34;;;;;;;1.30;0.70;;;;;;;;;;5053233;28;20032;-77
2023/10/31 10:39:11;;;;;;;3.80;1.00;;;;;;;;;;5047369;28;20013;-77
2023/10/31 10:41:43;;;;;;;5.20;1.13;;;;;;;;;;5036695;28;20037;-77
2023/10/31 10:44:09;;;;;;;3.13;0.80;;;;;;;;;;5036705;28;20021;-77
2023/10/31 10:46:36;;;;;;;1.97;0.50;;;;;;;;;;5040124;28;20024;-77
2023/10/31 10:49:12;;;;;;;2.93;0.73;;;;;;;;;;5060240;28;20028;-77
2023/10/31 10:52:01;;;;;;;3.50;0.53;;;;;;;;;;5042977;28;20085;-76
2023/10/31 11:49:49;;;;;;;1.58;0.50;;;;;;;;;;4992971;28;20106;-78
2023/10/31 11:52:19;;;;;;;2.47;0.40;;;;;;;;;;5013207;28;20007;-77
2023/10/31 11:55:10;;;;;;;1.25;0.60;;;;;;;;;;5087095;22;20031;-76
2023/10/31 11:57:46;;;;;;;;;;;;;;;;;;;;;
2023/10/31 12:00:21;;;;;;;1.73;0.50;;;;;;;;;;5035872;28;20041;-77
2023/10/31 12:03:00;;;;;;;2.20;0.60;;;;;;;;;;5032463;28;20082;-78
2023/10/31 12:05:28;;;;;;;2.25;1.00;;;;;;;;;;5016931;28;20401;-78
2023/10/31 12:08:00;;;;;;;1.05;0.43;;;;;;;;;;5004459;28;20021;-78
2023/10/31 12:10:29;;;;;;;1.77;0.70;;;;;;;;;;5023705;28;20045;-77
2023/10/31 12:12:58;;;;;;;1.98;0.30;;;;;;;;;;5009437;28;20045;-78
2023/10/31 12:15:24;;;;;;;2.50;0.43;;;;;;;;;;5021862;28;20030;-77
2023/10/31 12:17:52;;;;;;;2.30;0.50;;;;;;;;;;5011364;28;20007;-78
2023/10/31 12:20:21;;;;;;;1.60;0.40;;;;;;;;;;5007891;28;20049;-77
2023/10/31 12:22:50;;;;;;;0.60;0.32;;;;;;;;;;5008898;28;20032;-77
2023/10/31 12:25:20;;;;;;;3.88;1.02;;;;;;;;;;5010100;28;20034;-77
2023/10/31 12:28:08;;;;;;;3.72;0.60;;;;;;;;;;5007602;28;20034;-77
2023/10/31 12:30:45;;;;;;;5.47;0.70;;;;;;;;;;5008748;28;20030;-77
2023/10/31 12:33:11;;;;;;;4.75;0.93;;;;;;;;;;5008377;28;20049;-76
2023/10/31 12:35:42;;;;;;;2.38;0.40;;;;;;;;;;5008212;28;20057;-77
2023/10/31 12:38:10;;;;;;;5.13;0.75;;;;;;;;;;5008108;28;20085;-77
2023/10/31 12:40:40;;;;;;;1.90;0.43;;;;;;;;;;4996306;28;20021;-78
2023/10/31 12:43:06;;;;;;;2.67;1.00;;;;;;;;;;5008789;28;20038;-76
2023/10/31 12:45:34;;;;;;;3.70;0.60;;;;;;;;;;5007858;28;20094;-77
2023/10/31 12:48:04;;;;;;;4.85;0.95;;;;;;;;;;5104030;22;20063;-77
2023/10/31 12:50:36;;;;;;;4.30;0.60;;;;;;;;;;5004757;28;20070;-76
2023/10/31 12:53:06;;;;;;;4.93;0.70;;;;;;;;;;5004911;28;20034;-76
2023/10/31 12:55:40;;;;;;;2.15;0.75;;;;;;;;;;5003260;28;20051;-77
2023/10/31 12:58:06;;;;;;;6.90;0.63;;;;;;;;;;5004237;28;20050;-76
2023/10/31 13:00:41;;;;;;;2.10;0.47;;;;;;;;;;5005434;28;20026;-77
2023/10/31 13:03:09;;;;;;;8.35;0.93;;;;;;;;;;5003851;28;20065;-77
2023/10/31 13:05:43;;;;;;;4.95;0.70;;;;;;;;;;5085105;23;20037;-77
2023/10/31 13:08:14;;;;;;;3.28;0.50;;;;;;;;;;5014229;28;20093;-77
2023/10/31 13:13:13;;;;;;;3.25;0.63;;;;;;;;;;5011305;28;20208;-77
2023/10/31 13:15:45;;;;;;;3.05;0.80;;;;;;;;;;5009522;28;20085;-77
2023/10/31 13:18:12;;;;;;;2.57;0.70;;;;;;;;;;5011927;28;20216;-77
2023/10/31 13:20:38;;;;;;;10.55;0.88;;;;;;;;;;5012263;28;20392;-77
2023/10/31 13:23:07;;;;;;;2.35;0.80;;;;;;;;;;5010510;28;20096;-77
2023/10/31 13:25:33;;;;;;;1.50;0.60;;;;;;;;;;5009198;28;20023;-78
2023/10/31 13:28:06;;;;;;;5.40;0.60;;;;;;;;;;5028639;28;20069;-77
2023/10/31 13:30:32;;;;;;;3.80;1.20;;;;;;;;;;5048340;22;20033;-76
2023/10/31 13:32:58;;;;;;;4.20;0.50;;;;;;;;;;5053668;28;20175;-75
2023/10/31 13:35:24;;;;;;;4.25;0.93;;;;;;;;;;5035464;28;20025;-76
2023/10/31 13:37:50;;;;;;;4.45;0.70;;;;;;;;;;5030252;28;20022;-77
2023/10/31 13:40:17;;;;;;;6.88;0.95;;;;;;;;;;5052170;28;20014;-77
2023/10/31 13:42:43;;;;;;;2.58;0.60;;;;;;;;;;5292892;22;20091;-79
2023/10/31 13:45:09;;;;;;;5.47;0.60;;;;;;;;;;4996675;28;20145;-78
2023/10/31 13:47:37;;;;;;;8.48;0.70;;;;;;;;;;5100081;23;20041;-77
2023/10/31 13:50:08;;;;;;;6.95;0.82;;;;;;;;;;5014891;28;20026;-76
2023/10/31 13:52:34;;;;;;;3.10;0.80;;;;;;;;;;5010261;28;20034;-76
2023/10/31 13:55:00;;;;;;;2.67;0.40;;;;;;;;;;5027898;28;20048;-79
2023/10/31 13:57:26;;;;;;;2.45;0.40;;;;;;;;;;5017726;28;20030;-76
2023/10/31 13:59:53;;;;;;;3.72;1.25;;;;;;;;;;5031283;28;20443;-77
2023/10/31 14:02:19;;;;;;;3.75;0.68;;;;;;;;;;5031113;28;20034;-76
2023/10/31 14:04:45;;;;;;;2.70;0.80;;;;;;;;;;5016047;28;20030;-76
2023/10/31 14:07:16;;;;;;;4.72;1.25;;;;;;;;;;5031523;28;20037;-77
2023/10/31 14:09:42;;;;;;;4.78;1.02;;;;;;;;;;5002620;28;20060;-81
2023/10/31 14:12:08;;;;;;;3.25;0.65;;;;;;;;;;5014452;28;20055;-85
2023/10/31 14:14:34;;;;;;;2.25;0.80;;;;;;;;;;5010630;28;20052;-87
2023/10/31 14:17:00;;;;;;;4.68;0.95;;;;;;;;;;5003998;28;20030;-86
2023/10/31 14:19:26;;;;;;;2.33;0.73;;;;;;;;;;4992380;28;20049;-87
2023/10/31 14:21:52;;;;;;;7.03;0.70;;;;;;;;;;5008018;28;20057;-81
2023/10/31 14:24:18;;;;;;;5.78;0.98;;;;;;;;;;5028731;28;20018;-77
2023/10/31 14:26:44;;;;;;;3.85;0.80;;;;;;;;;;5030479;28;20026;-77
2023/10/31 14:29:14;;;;;;;2.67;0.60;;;;;;;;;;5029700;28;20053;-78
2023/10/31 14:31:41;;;;;;;5.93;1.10;;;;;;;;;;5029922;28;20056;-76
2023/10/31 14:34:07;;;;;;;2.85;0.65;;;;;;;;;;5013313;28;20023;-78
2023/10/31 14:36:33;;;;;;;4.53;0.63;;;;;;;;;;5009996;28;20094;-78
2023/10/31 14:38:59;;;;;;;6.60;0.80;;;;;;;;;;5009745;28;20022;-78
2023/10/31 14:41:25;;;;;;;2.72;0.70;;;;;;;;;;5041233;23;20059;-78
2023/10/31 14:43:54;;;;;;;4.45;0.65;;;;;;;;;;5069525;28;20037;-77
2023/10/31 14:46:20;;;;;;;5.43;0.75;;;;;;;;;;5074750;28;20009;-77
2023/10/31 14:48:51;;;;;;;5.07;1.40;;;;;;;;;;5054871;28;20088;-77
2023/10/31 14:51:22;;;;;;;2.53;0.55;;;;;;;;;;5055198;28;20048;-78
2023/10/31 14:53:59;;;;;;;2.92;0.47;;;;;;;;;;5057008;28;20017;-77
2023/10/31 14:56:35;;;;;;;8.05;0.95;;;;;;;;;;5054978;28;20045;-77
2023/10/31 14:59:04;;;;;;;4.90;0.77;;;;;;;;;;5054022;28;20097;-78
2023/10/31 15:01:36;;;;;;;4.30;1.27;;;;;;;;;;5070711;28;20040;-77
2023/10/31 15:04:04;;;;;;;2.65;0.85;;;;;;;;;;5054579;28;20033;-77
2023/10/31 15:06:36;;;;;;;4.50;0.82;;;;;;;;;;5054125;28;20052;-79
2023/10/31 15:09:04;;;;;;;2.53;0.60;;;;;;;;;;5053186;28;20041;-78
2023/10/31 15:11:30;;;;;;;9.32;1.15;;;;;;;;;;5051457;28;20039;-78
2023/10/31 15:14:04;;;;;;;3.92;0.95;;;;;;;;;;5070626;28;20025;-78
2023/10/31 15:16:32;;;;;;;4.68;1.08;;;;;;;;;;5109477;22;20096;-77
2023/10/31 15:19:17;;;;;;;;;;;;;;;;;;;;;
2023/10/31 15:21:56;;;;;;;;;;;;;;;;;;;;;
2023/10/31 15:24:32;;;;;;;;;;;;;;;;;;;;;
2023/10/31 15:27:01;;;;;;;2.67;0.93;;;;;;;;;;5026684;28;20045;-77
2023/10/31 15:29:32;;;;;;;7.10;0.80;;;;;;;;;;5018289;28;20090;-77
2023/10/31 15:32:00;;;;;;;7.38;1.23;;;;;;;;;;5025734;28;20022;-77
2023/10/31 15:34:36;;;;;;;4.35;0.70;;;;;;;;;;5003343;28;20018;-77
2023/10/31 15:37:20;;;;;;;6.65;0.90;;;;;;;;;;5019591;28;20038;-77
2023/10/31 15:39:57;;;;;;;6.43;1.10;;;;;;;;;;5001902;28;20038;-78
2023/10/31 15:42:36;;;;;;;;;;;;;;;;;;;;;
2023/10/31 15:45:20;;;;;;;3.78;1.27;;;;;;;;;;5026375;28;20470;-77
2023/10/31 15:47:51;;;;;;;3.75;0.90;;;;;;;;;;5002557;28;20030;-77
2023/10/31 15:50:18;;;;;;;2.60;0.75;;;;;;;;;;5005918;28;20133;-77
2023/10/31 15:52:46;;;;;;;3.38;1.00;;;;;;;;;;5023664;28;20023;-77
2023/10/31 15:55:14;;;;;;;4.68;1.05;;;;;;;;;;5017884;28;20090;-79
2023/10/31 15:57:43;;;;;;;7.33;1.37;;;;;;;;;;5005447;28;20235;-77
2023/10/31 16:52:51;;;;;;;4.97;2.23;;;;;;;;;;5339882;22;20070;-78
2023/10/31 16:55:20;;;;;;;8.97;2.27;;;;;;;;;;5026118;28;20014;-77
2023/10/31 16:58:09;;;;;;;6.23;2.53;;;;;;;;;;5004166;28;20060;-77
2023/10/31 17:00:41;;;;;;;4.40;2.20;;;;;;;;;;5122196;23;20026;-77
2023/10/31 17:03:14;;;;;;;8.32;2.10;;;;;;;;;;5037589;28;20034;-76
2023/10/31 17:08:35;;;;;;;8.05;2.40;;;;;;;;;;5037242;28;20022;-78
2023/10/31 17:11:09;;;;;;;6.57;1.80;;;;;;;;;;5040932;28;20074;-80
2023/10/31 17:13:37;;;;;;;8.10;2.50;;;;;;;;;;5039531;28;20006;-76
2023/10/31 17:16:04;;;;;;;5.23;2.00;;;;;;;;;;5039414;28;20022;-77
2023/10/31 17:21:27;;;;;;;7.20;1.93;;;;;;;;;;5031456;28;20068;-77
2023/10/31 17:23:56;;;;;;;5.27;1.90;;;;;;;;;;5039323;28;20006;-77
2023/10/31 17:26:22;;;;;;;3.60;1.93;;;;;;;;;;5039517;28;20016;-79
2023/10/31 17:28:58;;;;;;;5.23;2.07;;;;;;;;;;5039242;28;20037;-77